Pine Galaxy — C6TT5 — position and weather

sailwx.info

Track history (hours):
 
Tides and Currents Weather Stations Pressure Air Temp Water Temp Dewpoint Dewpoint Depression Visibility Wind Speed Wind Dir Waves Ship Positions

Pine Galaxy

Last reported at 2017-Jun-24 09:47 UTC. Time now 2017-Jun-27 03:26 UTC.
Position N 24°21' E 118°49'.

Length 148 m; draft 9.4 m.

Type: Tanker. MMSI: 311772000.

Date/timePositionNaut miles runAvg speedWind from/ knotsBaromVisibWave heightAir tempDewpointWater temp
2017-Jun-24 09:47N 24°21' E 118°49'1812.5
2017-Jun-24 08:22N 24°17' E 118°30'512.6
2017-Jun-24 07:56N 24°16' E 118°24'512.5
2017-Jun-24 07:30N 24°16' E 118°18'510.1
2017-Jun-24 07:00N 24°18' E 118°13'612.6
2017-Jun-24 06:30N 24°22' E 118°08'510.7
2017-Jun-24 06:01N 24°26' E 118°04'4 7.9
2017-Jun-24 05:31N 24°27' E 117°60'0 0.1
2017-Jun-24 04:08N 24°27' E 117°60'0 0.0
2017-Jun-24 03:38N 24°27' E 117°60'0 0.0
2017-Jun-24 03:20N 24°27' E 117°60'0 0.0
2017-Jun-24 01:38N 24°27' E 117°60'0 0.0
2017-Jun-24 01:02N 24°27' E 117°60'0 0.0
2017-Jun-24 00:32N 24°27' E 117°60'0 0.0
2017-Jun-24 00:26N 24°27' E 117°60'0 0.0
2017-Jun-23 20:20N 24°27' E 117°60'0 0.0
2017-Jun-23 19:50N 24°27' E 117°60'0 0.0
2017-Jun-23 19:26N 24°27' E 117°60'0 0.1
2017-Jun-23 18:44N 24°27' E 117°60'0 0.0
2017-Jun-23 18:26N 24°27' E 117°60'0 0.0
2017-Jun-23 16:38N 24°27' E 117°60'0 0.3
2017-Jun-23 16:26N 24°27' E 117°60'0 0.0
2017-Jun-23 08:14N 24°27' E 117°60'0 0.0
2017-Jun-23 08:00N 24°27' E 117°60'2 3.3
2017-Jun-23 07:30N 24°26' E 118°01'5 9.8
2017-Jun-23 07:01N 24°24' E 118°06'510.0
2017-Jun-23 06:31N 24°21' E 118°10'611.7
2017-Jun-23 06:00N 24°16' E 118°14'611.6
2017-Jun-23 05:30N 24°12' E 118°18'611.5
2017-Jun-23 05:00N 24°06' E 118°20'4 8.4
2017-Jun-23 04:30N 24°02' E 118°18'611.4
2017-Jun-23 04:00N 23°57' E 118°14'1012.7
2017-Jun-23 03:13N 23°49' E 118°08'  
2017-Jun-15 23:59N 01°14' E 104°01'713.8
2017-Jun-15 23:30N 01°13' E 103°55'611.6
2017-Jun-15 23:00N 01°12' E 103°49'5 9.8
2017-Jun-15 22:30N 01°16' E 103°46'3 5.4
2017-Jun-15 22:00N 01°18' E 103°44'0 0.0
2017-Jun-15 21:30N 01°18' E 103°44'0 0.0
2017-Jun-15 20:53N 01°18' E 103°44'0 0.0
2017-Jun-15 20:29N 01°18' E 103°44'0 0.0
2017-Jun-15 19:56N 01°18' E 103°44'0 0.0
2017-Jun-15 19:29N 01°18' E 103°44'0 0.0
2017-Jun-15 18:56N 01°18' E 103°44'0 0.0
2017-Jun-15 18:29N 01°18' E 103°44'0 0.0
2017-Jun-15 17:56N 01°18' E 103°44'0 0.0
2017-Jun-15 17:29N 01°18' E 103°44'0 0.0
2017-Jun-15 16:56N 01°18' E 103°44'0 0.0
2017-Jun-15 16:29N 01°18' E 103°44'0 0.0
2017-Jun-15 15:56N 01°18' E 103°44'0 0.0
2017-Jun-15 15:29N 01°18' E 103°44'0 0.0
2017-Jun-15 14:56N 01°18' E 103°44'0 0.0
2017-Jun-15 14:29N 01°18' E 103°44'0 0.0
2017-Jun-15 13:29N 01°18' E 103°44'0 0.0
2017-Jun-15 12:56N 01°18' E 103°44'0 0.0
2017-Jun-15 12:26N 01°18' E 103°44'0 0.0
2017-Jun-15 11:56N 01°18' E 103°44'0 0.0
2017-Jun-15 11:29N 01°18' E 103°44'0 0.0
2017-Jun-15 10:56N 01°18' E 103°44'0 0.0
2017-Jun-15 10:29N 01°18' E 103°44'0 0.0
2017-Jun-15 09:56N 01°18' E 103°44'0 0.0
2017-Jun-15 09:29N 01°18' E 103°44'0 0.0
2017-Jun-15 08:56N 01°18' E 103°44'0 0.0
2017-Jun-15 08:23N 01°18' E 103°44'0 0.0
2017-Jun-15 07:56N 01°18' E 103°44'0 0.0
2017-Jun-15 07:29N 01°18' E 103°44'0 0.0
2017-Jun-15 06:56N 01°18' E 103°44'0 0.0
2017-Jun-15 06:29N 01°18' E 103°44'0 0.0
2017-Jun-15 05:56N 01°18' E 103°44'0 0.0
2017-Jun-15 05:29N 01°18' E 103°44'0 0.0
2017-Jun-15 04:56N 01°18' E 103°44'0 0.0
2017-Jun-15 04:29N 01°18' E 103°44'0 0.0
2017-Jun-15 03:56N 01°18' E 103°44'0 0.0
2017-Jun-15 03:26N 01°18' E 103°44'0 0.0
2017-Jun-15 02:56N 01°18' E 103°44'0 0.0
2017-Jun-15 02:29N 01°18' E 103°44'0 0.0
2017-Jun-15 01:53N 01°18' E 103°44'0 0.0
2017-Jun-15 01:29N 01°18' E 103°44'0 0.0
2017-Jun-15 00:56N 01°18' E 103°44'0 0.0
2017-Jun-15 00:26N 01°18' E 103°44'0 0.0
2017-Jun-14 23:56N 01°18' E 103°44'0 0.0
2017-Jun-14 23:29N 01°18' E 103°44'0 0.0
2017-Jun-14 22:56N 01°18' E 103°44'0 0.0
2017-Jun-14 22:29N 01°18' E 103°44'0 0.0
2017-Jun-14 21:56N 01°18' E 103°44'0 0.0
2017-Jun-14 21:29N 01°18' E 103°44'0 0.0
2017-Jun-14 20:50N 01°18' E 103°44'0 0.0
2017-Jun-14 20:29N 01°18' E 103°44'0 0.0
2017-Jun-14 19:53N 01°18' E 103°44'0 0.0
2017-Jun-14 19:26N 01°18' E 103°44'0 0.0
2017-Jun-14 18:56N 01°18' E 103°44'0 0.0
2017-Jun-14 18:29N 01°18' E 103°44'0 0.0
2017-Jun-14 17:56N 01°18' E 103°44'0 0.0
2017-Jun-14 17:30N 01°18' E 103°44'1 1.6
2017-Jun-14 17:00N 01°17' E 103°44'3 5.2
2017-Jun-14 16:30N 01°15' E 103°45'5 9.3
2017-Jun-14 16:00N 01°13' E 103°40'2 4.7
2017-Jun-14 15:30N 01°14' E 103°38'0 0.0
2017-Jun-14 14:56N 01°14' E 103°38'0 0.0
2017-Jun-14 13:44N 01°14' E 103°38'0 0.0
2017-Jun-14 13:29N 01°14' E 103°38'0 0.0
2017-Jun-14 12:56N 01°14' E 103°38'0 0.0
2017-Jun-14 12:29N 01°14' E 103°38'0 0.0
2017-Jun-14 11:56N 01°14' E 103°38'0 0.0
2017-Jun-14 11:29N 01°14' E 103°38'0 0.1
2017-Jun-14 10:53N 01°14' E 103°38'0 0.0
2017-Jun-14 10:29N 01°14' E 103°38'0 0.0
2017-Jun-14 09:53N 01°14' E 103°38'  
Track history (hours):
 
Tides and Currents Weather Stations Pressure Air Temp Water Temp Dewpoint Dewpoint Depression Visibility Wind Speed Wind Dir Waves Ship Positions

Pine Galaxy

Last reported at 2017-Jun-24 09:47 UTC. Time now 2017-Jun-27 03:26 UTC.
Position N 24°21' E 118°49'.

Length 148 m; draft 9.4 m.

Type: Tanker. MMSI: 311772000.

Date/timePositionNaut miles runAvg speedWind from/ knotsBaromVisibWave heightAir tempDewpointWater temp
2017-Jun-24 09:47N 24°21' E 118°49'1812.5
2017-Jun-24 08:22N 24°17' E 118°30'512.6
2017-Jun-24 07:56N 24°16' E 118°24'512.5
2017-Jun-24 07:30N 24°16' E 118°18'510.1
2017-Jun-24 07:00N 24°18' E 118°13'612.6
2017-Jun-24 06:30N 24°22' E 118°08'510.7
2017-Jun-24 06:01N 24°26' E 118°04'4 7.9
2017-Jun-24 05:31N 24°27' E 117°60'0 0.1
2017-Jun-24 04:08N 24°27' E 117°60'0 0.0
2017-Jun-24 03:38N 24°27' E 117°60'0 0.0
2017-Jun-24 03:20N 24°27' E 117°60'0 0.0
2017-Jun-24 01:38N 24°27' E 117°60'0 0.0
2017-Jun-24 01:02N 24°27' E 117°60'0 0.0
2017-Jun-24 00:32N 24°27' E 117°60'0 0.0
2017-Jun-24 00:26N 24°27' E 117°60'0 0.0
2017-Jun-23 20:20N 24°27' E 117°60'0 0.0
2017-Jun-23 19:50N 24°27' E 117°60'0 0.0
2017-Jun-23 19:26N 24°27' E 117°60'0 0.1
2017-Jun-23 18:44N 24°27' E 117°60'0 0.0
2017-Jun-23 18:26N 24°27' E 117°60'0 0.0
2017-Jun-23 16:38N 24°27' E 117°60'0 0.3
2017-Jun-23 16:26N 24°27' E 117°60'0 0.0
2017-Jun-23 08:14N 24°27' E 117°60'0 0.0
2017-Jun-23 08:00N 24°27' E 117°60'2 3.3
2017-Jun-23 07:30N 24°26' E 118°01'5 9.8
2017-Jun-23 07:01N 24°24' E 118°06'510.0
2017-Jun-23 06:31N 24°21' E 118°10'611.7
2017-Jun-23 06:00N 24°16' E 118°14'611.6
2017-Jun-23 05:30N 24°12' E 118°18'611.5
2017-Jun-23 05:00N 24°06' E 118°20'4 8.4
2017-Jun-23 04:30N 24°02' E 118°18'611.4
2017-Jun-23 04:00N 23°57' E 118°14'1012.7
2017-Jun-23 03:13N 23°49' E 118°08'  
2017-Jun-15 23:59N 01°14' E 104°01'713.8
2017-Jun-15 23:30N 01°13' E 103°55'611.6
2017-Jun-15 23:00N 01°12' E 103°49'5 9.8
2017-Jun-15 22:30N 01°16' E 103°46'3 5.4
2017-Jun-15 22:00N 01°18' E 103°44'0 0.0
2017-Jun-15 21:30N 01°18' E 103°44'0 0.0
2017-Jun-15 20:53N 01°18' E 103°44'0 0.0
2017-Jun-15 20:29N 01°18' E 103°44'0 0.0
2017-Jun-15 19:56N 01°18' E 103°44'0 0.0
2017-Jun-15 19:29N 01°18' E 103°44'0 0.0
2017-Jun-15 18:56N 01°18' E 103°44'0 0.0
2017-Jun-15 18:29N 01°18' E 103°44'0 0.0
2017-Jun-15 17:56N 01°18' E 103°44'0 0.0
2017-Jun-15 17:29N 01°18' E 103°44'0 0.0
2017-Jun-15 16:56N 01°18' E 103°44'0 0.0
2017-Jun-15 16:29N 01°18' E 103°44'0 0.0
2017-Jun-15 15:56N 01°18' E 103°44'0 0.0
2017-Jun-15 15:29N 01°18' E 103°44'0 0.0
2017-Jun-15 14:56N 01°18' E 103°44'0 0.0
2017-Jun-15 14:29N 01°18' E 103°44'0 0.0
2017-Jun-15 13:29N 01°18' E 103°44'0 0.0
2017-Jun-15 12:56N 01°18' E 103°44'0 0.0
2017-Jun-15 12:26N 01°18' E 103°44'0 0.0
2017-Jun-15 11:56N 01°18' E 103°44'0 0.0
2017-Jun-15 11:29N 01°18' E 103°44'0 0.0
2017-Jun-15 10:56N 01°18' E 103°44'0 0.0
2017-Jun-15 10:29N 01°18' E 103°44'0 0.0
2017-Jun-15 09:56N 01°18' E 103°44'0 0.0
2017-Jun-15 09:29N 01°18' E 103°44'0 0.0
2017-Jun-15 08:56N 01°18' E 103°44'0 0.0
2017-Jun-15 08:23N 01°18' E 103°44'0 0.0
2017-Jun-15 07:56N 01°18' E 103°44'0 0.0
2017-Jun-15 07:29N 01°18' E 103°44'0 0.0
2017-Jun-15 06:56N 01°18' E 103°44'0 0.0
2017-Jun-15 06:29N 01°18' E 103°44'0 0.0
2017-Jun-15 05:56N 01°18' E 103°44'0 0.0
2017-Jun-15 05:29N 01°18' E 103°44'0 0.0
2017-Jun-15 04:56N 01°18' E 103°44'0 0.0
2017-Jun-15 04:29N 01°18' E 103°44'0 0.0
2017-Jun-15 03:56N 01°18' E 103°44'0 0.0
2017-Jun-15 03:26N 01°18' E 103°44'0 0.0
2017-Jun-15 02:56N 01°18' E 103°44'0 0.0
2017-Jun-15 02:29N 01°18' E 103°44'0 0.0
2017-Jun-15 01:53N 01°18' E 103°44'0 0.0
2017-Jun-15 01:29N 01°18' E 103°44'0 0.0
2017-Jun-15 00:56N 01°18' E 103°44'0 0.0
2017-Jun-15 00:26N 01°18' E 103°44'0 0.0
2017-Jun-14 23:56N 01°18' E 103°44'0 0.0
2017-Jun-14 23:29N 01°18' E 103°44'0 0.0
2017-Jun-14 22:56N 01°18' E 103°44'0 0.0
2017-Jun-14 22:29N 01°18' E 103°44'0 0.0
2017-Jun-14 21:56N 01°18' E 103°44'0 0.0
2017-Jun-14 21:29N 01°18' E 103°44'0 0.0
2017-Jun-14 20:50N 01°18' E 103°44'0 0.0
2017-Jun-14 20:29N 01°18' E 103°44'0 0.0
2017-Jun-14 19:53N 01°18' E 103°44'0 0.0
2017-Jun-14 19:26N 01°18' E 103°44'0 0.0
2017-Jun-14 18:56N 01°18' E 103°44'0 0.0
2017-Jun-14 18:29N 01°18' E 103°44'0 0.0
2017-Jun-14 17:56N 01°18' E 103°44'0 0.0
2017-Jun-14 17:30N 01°18' E 103°44'1 1.6
2017-Jun-14 17:00N 01°17' E 103°44'3 5.2
2017-Jun-14 16:30N 01°15' E 103°45'5 9.3
2017-Jun-14 16:00N 01°13' E 103°40'2 4.7
2017-Jun-14 15:30N 01°14' E 103°38'0 0.0
2017-Jun-14 14:56N 01°14' E 103°38'0 0.0
2017-Jun-14 13:44N 01°14' E 103°38'0 0.0
2017-Jun-14 13:29N 01°14' E 103°38'0 0.0
2017-Jun-14 12:56N 01°14' E 103°38'0 0.0
2017-Jun-14 12:29N 01°14' E 103°38'0 0.0
2017-Jun-14 11:56N 01°14' E 103°38'0 0.0
2017-Jun-14 11:29N 01°14' E 103°38'0 0.1
2017-Jun-14 10:53N 01°14' E 103°38'0 0.0
2017-Jun-14 10:29N 01°14' E 103°38'0 0.0
2017-Jun-14 09:53N 01°14' E 103°38'  

Dump ship's entire track history